createdAt,value
2019-02-25T00:02:05.866Z,18.13
2019-02-25T00:04:39.548Z,17.80
2019-02-25T00:07:13.181Z,19.23
2019-02-25T00:09:46.841Z,21.23
2019-02-25T00:12:20.513Z,19.93
2019-02-25T00:14:54.173Z,19.33
2019-02-25T00:17:27.965Z,20.50
2019-02-25T00:20:01.663Z,19.73
2019-02-25T00:22:35.278Z,19.20
2019-02-25T00:25:11.481Z,18.57
2019-02-25T00:27:45.121Z,21.53
2019-02-25T00:30:18.832Z,18.73
2019-02-25T00:32:58.797Z,18.90
2019-02-25T00:35:32.487Z,20.03
2019-02-25T00:38:06.144Z,20.00
2019-02-25T00:40:42.805Z,18.37
2019-02-25T00:43:16.537Z,19.93
2019-02-25T00:45:50.274Z,20.20
2019-02-25T00:48:23.929Z,21.57
2019-02-25T00:50:57.593Z,21.13
2019-02-25T00:53:31.237Z,19.87
2019-02-25T00:56:04.979Z,20.80
2019-02-25T00:58:38.605Z,20.27
2019-02-25T01:01:12.312Z,20.90
2019-02-25T01:03:45.944Z,22.73
2019-02-25T01:06:19.603Z,24.43
2019-02-25T01:08:53.764Z,22.77
2019-02-25T01:11:27.428Z,21.10
2019-02-25T01:14:01.111Z,20.90
2019-02-25T01:16:35.080Z,19.63
2019-02-25T01:19:17.730Z,20.50
2019-02-25T01:21:51.422Z,19.23
2019-02-25T01:24:28.029Z,20.30
2019-02-25T01:27:01.735Z,20.57
2019-02-25T01:29:35.321Z,20.17
2019-02-25T01:32:22.052Z,20.47
2019-02-25T01:34:55.724Z,20.43
2019-02-25T01:37:32.730Z,18.30
2019-02-25T01:40:09.167Z,19.53
2019-02-25T01:42:42.876Z,18.30
2019-02-25T01:45:22.587Z,18.77
2019-02-25T01:47:56.590Z,18.73
2019-02-25T01:50:30.187Z,19.77
2019-02-25T01:53:19.053Z,18.83
2019-02-25T01:55:52.651Z,19.00
2019-02-25T01:58:35.429Z,19.03
2019-02-25T02:01:09.043Z,19.20
2019-02-25T02:03:42.671Z,19.07
2019-02-25T02:06:23.990Z,18.57
2019-02-25T02:08:57.728Z,18.23
2019-02-25T02:11:34.884Z,17.23
2019-02-25T02:14:08.843Z,19.20
2019-02-25T02:16:42.530Z,19.13
2019-02-25T02:19:16.170Z,18.47
2019-02-25T02:21:49.754Z,17.43
2019-02-25T02:24:23.382Z,17.80
2019-02-25T02:27:09.107Z,17.37
2019-02-25T02:29:42.719Z,18.60
2019-02-25T02:32:19.384Z,21.80
2019-02-25T02:34:53.016Z,24.83
2019-02-25T02:37:26.680Z,25.20
2019-02-25T02:40:00.479Z,22.63
2019-02-25T02:43:00.387Z,24.43
2019-02-25T02:45:46.793Z,24.50
2019-02-25T02:48:23.464Z,24.60
2019-02-25T02:50:57.094Z,23.73
2019-02-25T02:53:30.954Z,24.80
2019-02-25T02:56:04.702Z,24.90
2019-02-25T02:58:38.367Z,24.80
2019-02-25T03:01:12.082Z,26.60
2019-02-25T03:03:45.773Z,26.67
2019-02-25T03:06:19.366Z,25.67
2019-02-25T03:08:55.987Z,26.87
2019-02-25T03:11:29.636Z,26.03
2019-02-25T03:14:18.341Z,26.00
2019-02-25T03:16:51.932Z,26.90
2019-02-25T03:19:25.573Z,27.07
2019-02-25T03:21:59.163Z,25.20
2019-02-25T03:24:32.795Z,27.80
2019-02-25T03:27:21.478Z,29.10
2019-02-25T03:29:55.091Z,28.47
2019-02-25T03:32:28.733Z,27.90
2019-02-25T03:35:14.500Z,27.07
2019-02-25T03:37:48.300Z,29.03
2019-02-25T03:40:23.000Z,29.60
2019-02-25T03:42:56.637Z,30.00
2019-02-25T03:45:30.229Z,30.03
2019-02-25T03:48:03.922Z,29.77
2019-02-25T03:50:37.522Z,29.37
2019-02-25T03:53:11.119Z,29.90
2019-02-25T03:55:44.851Z,31.53
2019-02-25T03:58:18.475Z,30.20
2019-02-25T04:00:52.408Z,30.33
2019-02-25T04:03:26.174Z,30.73
2019-02-25T04:05:59.824Z,31.27
2019-02-25T04:08:33.592Z,29.67
2019-02-25T04:11:16.660Z,27.77
2019-02-25T04:13:50.273Z,26.27
2019-02-25T04:16:23.944Z,25.47
2019-02-25T04:18:57.707Z,24.23
2019-02-25T04:21:31.403Z,24.83
2019-02-25T04:24:17.135Z,24.60
2019-02-25T04:26:50.748Z,26.53
2019-02-25T04:29:24.694Z,26.77
2019-02-25T04:31:58.332Z,27.20
2019-02-25T04:34:31.981Z,28.03
2019-02-25T04:37:06.027Z,28.73
2019-02-25T04:39:51.903Z,24.70
2019-02-25T04:42:25.914Z,26.20
2019-02-25T04:44:59.600Z,26.03
2019-02-25T04:47:33.294Z,24.50
2019-02-25T04:50:08.962Z,26.97
2019-02-25T04:52:42.649Z,28.03
2019-02-25T04:55:16.624Z,27.10
2019-02-25T04:57:53.271Z,28.40
2019-02-25T05:00:27.390Z,29.27
2019-02-25T05:03:01.072Z,32.20
2019-02-25T05:05:34.725Z,33.83
2019-02-25T05:08:08.348Z,35.13
2019-02-25T05:10:41.933Z,35.77
2019-02-25T05:13:18.642Z,37.90
2019-02-25T05:15:52.260Z,40.03
2019-02-25T05:18:25.910Z,39.23
2019-02-25T05:21:01.439Z,40.50
2019-02-25T05:23:35.100Z,39.67
2019-02-25T05:26:08.731Z,38.40
2019-02-25T05:28:42.357Z,37.40
2019-02-25T05:31:16.104Z,39.43
2019-02-25T05:33:49.780Z,40.60
2019-02-25T05:36:23.481Z,39.20
2019-02-25T05:38:58.667Z,41.60
2019-02-25T05:41:32.503Z,43.13
2019-02-25T05:44:08.494Z,41.20
2019-02-25T05:46:41.446Z,42.80
2019-02-25T05:49:18.148Z,40.20
2019-02-25T05:51:51.762Z,41.83
2019-02-25T05:54:30.069Z,45.23
2019-02-25T05:57:03.770Z,43.80
2019-02-25T05:59:43.771Z,41.90
2019-02-25T06:02:17.390Z,42.87
2019-02-25T06:04:51.499Z,43.27
2019-02-25T06:07:31.130Z,43.23
2019-02-25T06:10:06.585Z,40.87
2019-02-25T06:12:43.662Z,40.37
2019-02-25T06:15:18.928Z,41.47
2019-02-25T06:17:52.802Z,43.77
2019-02-25T06:20:29.477Z,43.33
2019-02-25T06:23:03.239Z,43.10
2019-02-25T06:25:37.197Z,41.93
2019-02-25T06:28:13.990Z,41.70
2019-02-25T06:30:47.530Z,43.30
2019-02-25T06:33:21.344Z,44.03
2019-02-25T06:35:54.952Z,45.40
2019-02-25T06:38:28.653Z,45.53
2019-02-25T06:41:02.407Z,42.87
2019-02-25T06:43:39.077Z,45.27
2019-02-25T06:46:31.291Z,45.07
2019-02-25T06:49:08.866Z,43.17
2019-02-25T06:51:45.880Z,42.77
2019-02-25T06:54:19.570Z,39.90
2019-02-25T06:56:56.517Z,39.50
2019-02-25T06:59:30.265Z,39.43
2019-02-25T07:02:03.934Z,38.77
2019-02-25T07:04:48.402Z,35.87
2019-02-25T07:07:23.625Z,36.27
2019-02-25T07:10:01.873Z,36.87
2019-02-25T07:12:37.114Z,35.03
2019-02-25T07:15:12.359Z,33.93
2019-02-25T07:17:53.563Z,33.53
2019-02-25T07:20:28.829Z,33.43
2019-02-25T07:23:04.065Z,31.77
2019-02-25T07:28:28.613Z,34.87
2019-02-25T07:31:19.323Z,30.70
2019-02-25T07:33:54.688Z,29.20
2019-02-25T07:36:29.966Z,30.37
2019-02-25T07:39:16.465Z,30.93
2019-02-25T07:41:55.064Z,31.62
2019-02-25T07:44:30.877Z,31.45
2019-02-25T07:47:06.855Z,31.00
2019-02-25T07:49:48.988Z,29.45
2019-02-25T07:52:33.588Z,29.85
2019-02-25T07:55:19.817Z,31.48
2019-02-25T07:57:58.801Z,30.30
2019-02-25T08:00:53.673Z,30.60
2019-02-25T08:03:29.584Z,30.57
2019-02-25T08:06:22.082Z,29.90
2019-02-25T08:08:57.928Z,29.63
2019-02-25T08:11:53.071Z,29.80
2019-02-25T08:17:39.134Z,30.12
2019-02-25T08:20:27.183Z,29.75
2019-02-25T08:23:03.032Z,28.47
2019-02-25T08:28:53.034Z,28.20
2019-02-25T08:31:52.151Z,28.52
2019-02-25T08:34:40.103Z,28.80
2019-02-25T08:37:34.108Z,27.85
2019-02-25T08:40:40.547Z,29.18
2019-02-25T08:43:38.204Z,28.87
2019-02-25T08:46:14.155Z,28.70
2019-02-25T08:48:50.475Z,28.65
2019-02-25T08:51:24.643Z,28.17
2019-02-25T08:53:58.917Z,27.73
2019-02-25T08:56:41.264Z,28.07
2019-02-25T08:59:15.918Z,28.17
2019-02-25T09:01:50.261Z,28.20
2019-02-25T09:04:24.635Z,27.93
2019-02-25T09:07:02.342Z,28.80
2019-02-25T09:09:36.892Z,27.07
2019-02-25T09:12:17.403Z,28.73
2019-02-25T09:14:51.985Z,27.17
2019-02-25T09:17:26.187Z,27.13
2019-02-25T09:20:00.687Z,26.82
2019-02-25T09:22:35.207Z,26.62
2019-02-25T09:25:18.652Z,25.65
2019-02-25T09:27:52.855Z,26.57
2019-02-25T09:30:27.494Z,24.57
2019-02-25T09:33:01.741Z,25.85
2019-02-25T09:35:35.950Z,24.57
2019-02-25T09:38:19.620Z,24.43
2019-02-25T09:40:54.312Z,23.90
2019-02-25T09:43:31.615Z,23.50
2019-02-25T09:46:05.990Z,22.48
2019-02-25T09:48:40.174Z,22.15
2019-02-25T09:51:22.086Z,21.70
2019-02-25T09:53:56.327Z,22.40
2019-02-25T09:56:30.831Z,22.20
2019-02-25T09:59:05.127Z,21.37
2019-02-25T10:01:39.319Z,23.10
2019-02-25T10:04:13.523Z,22.27
2019-02-25T10:07:02.278Z,22.85
2019-02-25T10:09:32.630Z,21.07
2019-02-25T10:12:06.818Z,21.65
2019-02-25T10:14:45.899Z,20.00
2019-02-25T10:17:23.833Z,17.60
2019-02-25T10:19:55.663Z,17.83
2019-02-25T10:22:29.603Z,17.67
2019-02-25T10:25:04.762Z,18.67
2019-02-25T10:27:46.042Z,17.37
2019-02-25T10:30:21.029Z,17.33
2019-02-25T10:32:54.976Z,18.93
2019-02-25T10:35:30.393Z,25.23
2019-02-25T10:38:05.117Z,24.95
2019-02-25T10:40:39.163Z,19.10
2019-02-25T10:43:13.792Z,22.13
2019-02-25T10:45:52.779Z,19.37
2019-02-25T10:48:28.111Z,16.73
2019-02-25T10:51:02.750Z,17.90
2019-02-25T10:53:37.681Z,17.03
2019-02-25T10:56:16.746Z,18.07
2019-02-25T10:58:50.515Z,17.90
2019-02-25T11:01:24.707Z,16.40
2019-02-25T11:03:58.797Z,15.90
2019-02-25T11:06:35.551Z,12.73
2019-02-25T11:09:15.775Z,14.35
2019-02-25T11:11:50.676Z,12.93
2019-02-25T11:14:25.579Z,13.78
2019-02-25T11:16:59.799Z,12.03
2019-02-25T11:19:46.005Z,10.10
2019-02-25T11:22:20.183Z,13.95
2019-02-25T11:24:55.606Z,11.00
2019-02-25T11:27:37.786Z,13.43
2019-02-25T11:30:16.584Z,14.67
2019-02-25T11:32:51.714Z,13.40
2019-02-25T11:35:26.221Z,13.77
2019-02-25T11:38:01.769Z,15.33
2019-02-25T11:40:37.855Z,14.60
2019-02-25T11:43:13.239Z,7.67
2019-02-25T11:45:51.180Z,7.53
2019-02-25T11:48:25.118Z,7.13
2019-02-25T11:51:03.473Z,6.97
2019-02-25T11:53:37.683Z,7.28
2019-02-25T11:56:11.882Z,9.05
2019-02-25T11:58:53.679Z,7.72
2019-02-25T12:01:27.942Z,6.87
2019-02-25T12:04:05.830Z,7.50
2019-02-25T12:06:40.420Z,8.70
2019-02-25T12:09:18.024Z,9.15
2019-02-25T12:11:52.302Z,9.48
2019-02-25T12:14:31.406Z,10.80
2019-02-25T12:17:05.767Z,11.60
2019-02-25T12:19:40.023Z,11.12
2019-02-25T12:22:18.711Z,10.05
2019-02-25T12:24:53.001Z,10.25
2019-02-25T12:27:32.989Z,10.32
2019-02-25T12:30:10.255Z,10.05
2019-02-25T12:32:45.948Z,9.23
2019-02-25T12:35:20.542Z,9.45
2019-02-25T12:37:54.750Z,9.15
2019-02-25T12:40:33.481Z,10.50
2019-02-25T12:43:07.718Z,9.50
2019-02-25T12:45:42.021Z,8.20
2019-02-25T12:48:22.633Z,10.05
2019-02-25T12:50:56.421Z,10.30
2019-02-25T12:53:34.551Z,10.45
2019-02-25T12:56:08.837Z,11.85
2019-02-25T12:58:43.129Z,11.97
2019-02-25T13:01:21.329Z,12.30
2019-02-25T13:03:55.659Z,13.30
2019-02-25T13:06:34.718Z,13.50
2019-02-25T13:09:11.903Z,13.93
2019-02-25T13:11:46.109Z,15.75
2019-02-25T13:14:22.420Z,15.00
2019-02-25T13:16:56.706Z,14.43
2019-02-25T13:19:36.017Z,14.50
2019-02-25T13:22:10.225Z,15.58
2019-02-25T13:24:44.527Z,15.95
2019-02-25T13:27:23.797Z,16.27
2019-02-25T13:29:58.060Z,15.83
2019-02-25T13:32:34.595Z,17.73
2019-02-25T13:35:11.350Z,16.95
2019-02-25T13:37:47.939Z,14.63
2019-02-25T13:40:22.331Z,14.40
2019-02-25T13:42:57.269Z,13.68
2019-02-25T13:45:31.491Z,14.45
2019-02-25T13:48:05.788Z,18.07
2019-02-25T13:50:45.841Z,19.45
2019-02-25T13:53:20.095Z,21.15
2019-02-25T13:55:54.449Z,22.87
2019-02-25T13:58:34.736Z,24.72
2019-02-25T14:01:09.099Z,26.33
2019-02-25T14:03:43.320Z,27.32
2019-02-25T14:06:20.680Z,27.42
2019-02-25T14:08:54.892Z,28.23
2019-02-25T14:11:29.247Z,27.30
2019-02-25T14:14:03.533Z,29.30
2019-02-25T14:16:37.853Z,33.13
2019-02-25T14:19:12.057Z,37.10
2019-02-25T14:21:49.367Z,38.15
2019-02-25T14:24:24.671Z,38.88
2019-02-25T14:26:58.889Z,43.10
2019-02-25T14:29:33.181Z,41.28
2019-02-25T14:32:17.006Z,41.58
2019-02-25T14:34:51.357Z,41.55
2019-02-25T14:37:25.337Z,42.70
2019-02-25T14:40:02.794Z,40.63
2019-02-25T14:42:38.485Z,41.57
2019-02-25T14:45:14.721Z,42.93
2019-02-25T14:47:49.764Z,41.33
2019-02-25T14:50:31.597Z,40.67
2019-02-25T14:53:06.601Z,40.13
2019-02-25T14:55:42.893Z,41.50
2019-02-25T14:58:17.520Z,40.63
2019-02-25T15:00:51.877Z,38.70
2019-02-25T15:03:27.100Z,41.80
2019-02-25T15:06:01.427Z,41.20
2019-02-25T15:08:35.065Z,41.60
2019-02-25T15:11:10.850Z,40.30
2019-02-25T15:13:44.311Z,40.57
2019-02-25T15:16:17.962Z,43.30
2019-02-25T15:18:58.642Z,44.33
2019-02-25T15:21:33.397Z,42.77
2019-02-25T15:24:08.411Z,44.40
2019-02-25T15:26:43.378Z,46.47
2019-02-25T15:29:29.412Z,43.90
2019-02-25T15:32:03.583Z,44.43
2019-02-25T15:34:52.852Z,45.77
2019-02-25T15:37:27.892Z,44.00
2019-02-25T15:40:01.829Z,45.47
2019-02-25T15:42:38.455Z,45.52
2019-02-25T15:45:18.805Z,43.07
2019-02-25T15:47:59.816Z,45.63
2019-02-25T15:50:33.981Z,45.43
2019-02-25T15:53:09.458Z,44.20
2019-02-25T15:55:43.616Z,43.73
2019-02-25T15:58:17.643Z,46.07
2019-02-25T16:00:58.732Z,45.63
2019-02-25T16:03:34.449Z,45.30
2019-02-25T16:06:08.372Z,44.97
2019-02-25T16:08:49.847Z,44.30
2019-02-25T16:11:25.627Z,46.80
2019-02-25T16:14:00.671Z,45.47
2019-02-25T16:16:35.389Z,45.77
2019-02-25T16:19:13.552Z,46.07
2019-02-25T16:21:47.426Z,44.70
2019-02-25T16:24:21.162Z,46.23
2019-02-25T16:26:56.179Z,46.90
2019-02-25T16:29:30.426Z,47.63
2019-02-25T16:32:11.247Z,46.97
2019-02-25T16:34:44.944Z,45.50
2019-02-25T16:37:19.876Z,43.60
2019-02-25T16:39:55.547Z,43.47
2019-02-25T16:42:30.241Z,43.33
2019-02-25T16:45:14.179Z,42.10
2019-02-25T16:47:47.936Z,42.40
2019-02-25T16:50:25.355Z,42.17
2019-02-25T16:53:01.230Z,42.17
2019-02-25T16:55:34.354Z,41.70
2019-02-25T16:58:12.473Z,42.33
2019-02-25T17:00:44.052Z,42.30
2019-02-25T17:03:17.891Z,41.87
2019-02-25T17:05:54.779Z,40.00
2019-02-25T17:08:30.346Z,42.43
2019-02-25T17:11:03.711Z,40.10
2019-02-25T17:13:39.298Z,41.40
2019-02-25T17:16:29.172Z,40.03
2019-02-25T17:19:02.800Z,40.30
2019-02-25T17:21:42.920Z,41.03
2019-02-25T17:24:15.511Z,39.57
2019-02-25T17:26:51.652Z,40.43
2019-02-25T17:29:26.561Z,41.03
2019-02-25T17:32:07.243Z,41.90
2019-02-25T17:34:41.484Z,41.87
2019-02-25T17:37:17.144Z,39.83
2019-02-25T17:39:54.127Z,40.07
2019-02-25T17:42:26.444Z,39.70
2019-02-25T17:45:09.957Z,40.67
2019-02-25T17:47:44.167Z,40.47
2019-02-25T17:50:19.957Z,39.17
2019-02-25T17:52:53.923Z,38.47
2019-02-25T17:55:29.929Z,39.47
2019-02-25T17:58:06.861Z,39.43
2019-02-25T18:00:42.652Z,40.97
2019-02-25T18:03:19.535Z,40.03
2019-02-25T18:05:56.300Z,41.40
2019-02-25T18:08:30.215Z,40.37
2019-02-25T18:11:05.105Z,41.07
2019-02-25T18:13:44.529Z,41.50
2019-02-25T18:16:19.012Z,42.03
2019-02-25T18:18:54.346Z,41.13
2019-02-25T18:21:28.917Z,40.80
2019-02-25T18:24:05.082Z,40.67
2019-02-25T18:26:39.106Z,82.87
2019-02-25T18:29:16.016Z,50.73
2019-02-25T18:31:49.464Z,48.53
2019-02-25T18:34:27.889Z,42.97
2019-02-25T18:37:01.528Z,43.67
2019-02-25T18:39:35.345Z,43.97
2019-02-25T18:42:11.606Z,43.97
2019-02-25T18:44:46.835Z,48.87
2019-02-25T18:47:25.599Z,49.07
2019-02-25T18:50:01.178Z,45.73
2019-02-25T18:52:41.119Z,45.13
2019-02-25T18:55:20.418Z,46.13
2019-02-25T18:57:54.396Z,43.40
2019-02-25T19:00:31.986Z,44.70
2019-02-25T19:03:06.846Z,45.77
2019-02-25T19:05:41.106Z,48.77
2019-02-25T19:08:22.717Z,46.40
2019-02-25T19:10:57.263Z,49.57
2019-02-25T19:13:40.512Z,48.03
2019-02-25T19:16:15.771Z,49.57
2019-02-25T19:18:52.728Z,49.20
2019-02-25T19:21:27.735Z,47.20
2019-02-25T19:24:07.693Z,45.00
2019-02-25T19:26:43.016Z,49.20
2019-02-25T19:29:17.762Z,50.37
2019-02-25T19:31:52.786Z,50.50
2019-02-25T19:34:29.625Z,52.97
2019-02-25T19:37:05.158Z,50.83
2019-02-25T19:39:39.693Z,51.03
2019-02-25T19:42:24.290Z,54.10
2019-02-25T19:44:58.566Z,53.60
2019-02-25T19:47:33.825Z,54.83
2019-02-25T19:50:11.828Z,53.57
2019-02-25T19:52:46.682Z,54.20
2019-02-25T19:55:22.617Z,54.37
2019-02-25T19:57:55.864Z,54.87
2019-02-25T20:00:30.419Z,53.40
2019-02-25T20:03:12.036Z,54.07
2019-02-25T20:05:46.337Z,54.87
2019-02-25T20:08:24.849Z,51.53
2019-02-25T20:10:58.611Z,50.87
2019-02-25T20:13:38.141Z,49.53
2019-02-25T20:16:15.813Z,48.40
2019-02-25T20:18:47.159Z,52.30
2019-02-25T20:21:22.403Z,53.80
2019-02-25T20:23:56.118Z,54.57
2019-02-25T20:26:30.078Z,56.20
2019-02-25T20:29:04.596Z,53.90
2019-02-25T20:31:39.422Z,56.17
2019-02-25T20:34:16.526Z,55.47
2019-02-25T20:36:52.405Z,52.67
2019-02-25T20:39:28.659Z,51.17
2019-02-25T20:42:21.760Z,52.87
2019-02-25T20:44:55.277Z,53.67
2019-02-25T20:47:30.270Z,54.73
2019-02-25T20:50:09.239Z,56.97
2019-02-25T20:52:44.563Z,55.03
2019-02-25T20:55:20.236Z,58.37
2019-02-25T20:57:53.910Z,56.63
2019-02-25T21:00:28.166Z,50.53
2019-02-25T21:03:01.787Z,52.87
2019-02-25T21:05:43.496Z,53.20
2019-02-25T21:08:19.148Z,53.13
2019-02-25T21:10:55.784Z,50.37
2019-02-25T21:13:31.347Z,52.20
2019-02-25T21:16:08.176Z,51.53
2019-02-25T21:18:44.293Z,51.63
2019-02-25T21:21:17.691Z,50.83
2019-02-25T21:23:54.410Z,53.13
2019-02-25T21:26:29.411Z,47.87
2019-02-25T21:29:09.695Z,48.83
2019-02-25T21:31:45.733Z,48.37
2019-02-25T21:34:24.090Z,48.37
2019-02-25T21:36:56.716Z,47.27
2019-02-25T21:39:38.725Z,47.47
2019-02-25T21:42:15.371Z,46.90
2019-02-25T21:44:50.305Z,47.37
2019-02-25T21:47:24.309Z,46.40
2019-02-25T21:50:00.923Z,46.67
2019-02-25T21:52:35.236Z,44.90
2019-02-25T21:55:23.778Z,45.10
2019-02-25T21:57:58.003Z,44.47
2019-02-25T22:00:35.882Z,43.27
2019-02-25T22:03:10.905Z,42.30
2019-02-25T22:05:49.356Z,42.50
2019-02-25T22:08:24.154Z,43.60
2019-02-25T22:10:58.226Z,43.03
2019-02-25T22:13:31.914Z,41.60
2019-02-25T22:16:08.663Z,42.73
2019-02-25T22:18:42.301Z,43.40
2019-02-25T22:21:19.492Z,42.57
2019-02-25T22:23:56.080Z,42.73
2019-02-25T22:26:29.136Z,41.57
2019-02-25T22:29:08.165Z,40.07
2019-02-25T22:31:42.440Z,40.17
2019-02-25T22:34:17.973Z,37.43
2019-02-25T22:36:53.461Z,37.90
2019-02-25T22:39:31.891Z,38.60
2019-02-25T22:42:07.238Z,37.90
2019-02-25T22:44:45.151Z,38.87
2019-02-25T22:47:22.912Z,37.23
2019-02-25T22:49:56.061Z,34.43
2019-02-25T22:52:38.821Z,34.93
2019-02-25T22:55:15.390Z,35.40
2019-02-25T22:57:51.180Z,33.97
2019-02-25T23:00:30.387Z,34.07
2019-02-25T23:03:04.241Z,32.63
2019-02-25T23:05:41.012Z,30.67
2019-02-25T23:08:15.501Z,32.73
2019-02-25T23:10:54.134Z,30.67
2019-02-25T23:13:29.893Z,31.53
2019-02-25T23:16:06.533Z,29.63
2019-02-25T23:18:40.160Z,29.53
2019-02-25T23:21:23.152Z,30.83
2019-02-25T23:23:51.279Z,32.00
2019-02-25T23:26:26.263Z,30.30
2019-02-25T23:28:59.912Z,31.80
2019-02-25T23:31:33.486Z,31.00
2019-02-25T23:34:07.993Z,31.43
2019-02-25T23:36:44.824Z,31.43
2019-02-25T23:39:17.875Z,30.43
2019-02-25T23:42:04.997Z,31.10
2019-02-25T23:44:37.940Z,30.87
2019-02-25T23:47:11.756Z,31.13
2019-02-25T23:49:46.298Z,30.40
2019-02-25T23:52:28.079Z,30.87
2019-02-25T23:55:02.380Z,32.37
2019-02-25T23:57:35.998Z,32.10
